Time;durP1;ratioP1;P1;durP2;ratioP2;P2;SDS_P1;SDS_P2;PMS_P1;PMS_P2;Temp;Humidity;BMP_temperature;BMP_pressure;BME280_temperature;BME280_humidity;BME280_pressure;Samples;Min_cycle;Max_cycle;Signal;HPM_P1;HPM_P2
2021/11/03 00:01:57;;;;;;;;;;;18.20;62.40;;;;;;5020727;28;19932;-53
2021/11/03 00:04:22;;;;;;;;;;;18.20;62.40;;;;;;5021824;28;19917;-58
2021/11/03 00:06:48;;;;;;;;;;;18.20;62.40;;;;;;5021037;28;20326;-54
2021/11/03 00:09:13;;;;;;;;;;;18.20;62.40;;;;;;5022539;28;19913;-52
2021/11/03 00:11:39;;;;;;;;;;;18.10;62.30;;;;;;5022498;28;19917;-54
2021/11/03 00:14:04;;;;;;;;;;;18.20;62.30;;;;;;5020454;28;19920;-57
2021/11/03 00:16:32;;;;;;;;;;;18.20;62.20;;;;;;5020197;28;21249;-53
2021/11/03 00:18:57;;;;;;;;;;;18.20;62.20;;;;;;5023754;28;19927;-56
2021/11/03 00:21:22;;;;;;;;;;;18.20;62.20;;;;;;5025069;28;19940;-56
2021/11/03 00:23:48;;;;;;;;;;;18.20;62.10;;;;;;5024737;28;19920;-52
2021/11/03 00:26:13;;;;;;;;;;;18.10;62.10;;;;;;5025109;28;19913;-55
2021/11/03 00:28:39;;;;;;;;;;;18.20;62.10;;;;;;5025073;28;20295;-56
2021/11/03 00:31:04;;;;;;;;;;;18.20;62.00;;;;;;5025644;28;20142;-55
2021/11/03 00:33:30;;;;;;;;;;;18.20;62.00;;;;;;5024863;28;19920;-58
2021/11/03 00:35:56;;;;;;;;;;;18.20;62.00;;;;;;5025350;28;20452;-52
2021/11/03 00:38:21;;;;;;;;;;;18.20;62.00;;;;;;5025244;28;20108;-52
2021/11/03 00:40:47;;;;;;;;;;;18.20;61.90;;;;;;5025790;28;20163;-53
2021/11/03 00:43:12;;;;;;;;;;;18.20;62.00;;;;;;5024412;28;19939;-56
2021/11/03 00:45:38;;;;;;;;;;;18.20;61.90;;;;;;5023917;28;19952;-56
2021/11/03 00:48:04;;;;;;;;;;;18.20;61.90;;;;;;5024127;28;19916;-54
2021/11/03 00:50:29;;;;;;;;;;;18.20;61.90;;;;;;5024635;28;19914;-52
2021/11/03 00:52:54;;;;;;;;;;;18.20;61.90;;;;;;5006871;28;20569;-55
2021/11/03 00:55:20;;;;;;;;;;;18.20;61.80;;;;;;5024799;28;19922;-55
2021/11/03 00:57:45;;;;;;;;;;;18.20;61.80;;;;;;5024842;28;20000;-59
2021/11/03 01:00:11;;;;;;;;;;;18.20;61.80;;;;;;5024411;28;19914;-57
2021/11/03 01:02:37;;;;;;;;;;;18.20;61.80;;;;;;5024989;28;20465;-51
2021/11/03 01:05:02;;;;;;;;;;;18.20;61.80;;;;;;5024371;28;19913;-57
2021/11/03 01:07:28;;;;;;;;;;;18.20;61.70;;;;;;5024277;28;19921;-52
2021/11/03 01:09:53;;;;;;;;;;;18.20;61.80;;;;;;5025040;28;19997;-53
2021/11/03 01:12:19;;;;;;;;;;;18.20;61.70;;;;;;5024544;28;19917;-54
2021/11/03 01:14:44;;;;;;;;;;;18.20;61.60;;;;;;5024574;28;20005;-57
2021/11/03 01:17:10;;;;;;;;;;;18.20;61.60;;;;;;5024476;28;19933;-52
2021/11/03 01:19:35;;;;;;;;;;;18.20;61.60;;;;;;5024649;28;19913;-54
2021/11/03 01:22:01;;;;;;;;;;;18.20;61.60;;;;;;5016443;28;19971;-59
2021/11/03 01:24:27;;;;;;;;;;;18.20;61.60;;;;;;5025593;28;19979;-56
2021/11/03 01:26:52;;;;;;;;;;;18.20;61.60;;;;;;5024424;28;19918;-56
2021/11/03 01:29:18;;;;;;;;;;;18.20;61.60;;;;;;5024079;28;19955;-52
2021/11/03 01:31:43;;;;;;;;;;;18.20;61.60;;;;;;5024716;28;20391;-54
2021/11/03 01:34:09;;;;;;;;;;;18.20;61.60;;;;;;5023837;28;19917;-54
2021/11/03 01:36:34;;;;;;;;;;;18.20;61.60;;;;;;5025278;28;19985;-51
2021/11/03 01:39:00;;;;;;;;;;;18.20;61.50;;;;;;5024478;28;19920;-53
2021/11/03 01:41:25;;;;;;;;;;;18.20;61.50;;;;;;5023374;28;19923;-57
2021/11/03 01:43:51;;;;;;;;;;;18.20;61.50;;;;;;5024276;28;20434;-52
2021/11/03 01:46:35;;;;;;;;;;;18.20;61.50;;;;;;5022110;28;19917;-52
2021/11/03 01:49:03;;;;;;;;;;;18.20;61.60;;;;;;5023667;28;26281;-55
2021/11/03 01:51:30;;;;;;;;;;;18.20;61.50;;;;;;5022453;28;19956;-56
2021/11/03 01:53:55;;;;;;;;;;;18.20;61.50;;;;;;5020442;28;20542;-56
2021/11/03 01:56:21;;;;;;;;;;;18.20;61.40;;;;;;5022280;28;19970;-55
2021/11/03 01:58:53;;;;;;;;;;;18.20;61.50;;;;;;5023449;28;19917;-56
2021/11/03 02:01:19;;;;;;;;;;;18.20;61.50;;;;;;5022817;28;19913;-53
2021/11/03 02:03:45;;;;;;;;;;;18.20;61.40;;;;;;5023096;28;19978;-51
2021/11/03 02:06:14;;;;;;;;;;;18.20;61.50;;;;;;5023838;28;19913;-58
2021/11/03 02:08:40;;;;;;;;;;;18.20;61.50;;;;;;5022581;28;19914;-53
2021/11/03 02:11:06;;;;;;;;;;;18.10;61.40;;;;;;5024059;28;20031;-54
2021/11/03 02:13:32;;;;;;;;;;;18.20;61.40;;;;;;5022800;28;19971;-51
2021/11/03 02:15:57;;;;;;;;;;;18.20;61.40;;;;;;5023341;28;20298;-58
2021/11/03 02:18:23;;;;;;;;;;;18.20;61.40;;;;;;5022153;28;19917;-55
2021/11/03 02:20:49;;;;;;;;;;;18.20;61.40;;;;;;5022008;28;19920;-58
2021/11/03 02:23:23;;;;;;;;;;;18.20;61.50;;;;;;5020972;28;20526;-59
2021/11/03 02:25:51;;;;;;;;;;;18.20;61.40;;;;;;5021757;28;19946;-56
2021/11/03 02:28:17;;;;;;;;;;;18.20;61.30;;;;;;5023350;28;19917;-54
2021/11/03 02:30:42;;;;;;;;;;;18.20;61.40;;;;;;5023571;28;20545;-57
2021/11/03 02:33:09;;;;;;;;;;;18.20;61.40;;;;;;5024043;28;19941;-57
2021/11/03 02:35:35;;;;;;;;;;;18.20;61.40;;;;;;5022255;28;19920;-57
2021/11/03 02:38:01;;;;;;;;;;;18.10;61.30;;;;;;5021927;28;19940;-58
2021/11/03 02:40:37;;;;;;;;;;;18.20;61.30;;;;;;5023224;28;20390;-57
2021/11/03 02:43:07;;;;;;;;;;;18.20;61.30;;;;;;5020775;28;20523;-56
2021/11/03 02:45:40;;;;;;;;;;;18.10;61.30;;;;;;5021528;28;19932;-51
2021/11/03 02:48:06;;;;;;;;;;;18.20;61.30;;;;;;5021685;28;19913;-59
2021/11/03 02:50:31;;;;;;;;;;;18.20;61.30;;;;;;5021146;28;19928;-58
2021/11/03 02:52:56;;;;;;;;;;;18.20;61.30;;;;;;5022951;28;19943;-56
2021/11/03 02:55:22;;;;;;;;;;;18.10;61.30;;;;;;5022497;28;19951;-52
2021/11/03 02:57:47;;;;;;;;;;;18.10;61.30;;;;;;5022334;28;19924;-56
2021/11/03 03:00:17;;;;;;;;;;;18.10;61.20;;;;;;5022884;28;19948;-51
2021/11/03 03:02:43;;;;;;;;;;;18.10;61.20;;;;;;5021766;28;19917;-56
2021/11/03 03:05:08;;;;;;;;;;;18.10;61.20;;;;;;5022539;28;19920;-51
2021/11/03 03:07:34;;;;;;;;;;;18.10;61.20;;;;;;5022778;28;19913;-58
2021/11/03 03:09:59;;;;;;;;;;;18.10;61.20;;;;;;5020805;28;19913;-52
2021/11/03 03:12:27;;;;;;;;;;;18.10;61.20;;;;;;5022636;28;19917;-52
2021/11/03 03:14:53;;;;;;;;;;;18.10;61.20;;;;;;5021933;28;20461;-51
2021/11/03 03:17:18;;;;;;;;;;;18.10;61.20;;;;;;5021770;28;19913;-53
2021/11/03 03:19:44;;;;;;;;;;;18.10;61.20;;;;;;5021064;28;20329;-54
2021/11/03 03:22:10;;;;;;;;;;;18.10;61.10;;;;;;5022724;28;19944;-53
2021/11/03 03:24:35;;;;;;;;;;;18.10;61.10;;;;;;5022329;28;19920;-54
2021/11/03 03:27:01;;;;;;;;;;;18.10;61.10;;;;;;5022209;28;20298;-55
2021/11/03 03:29:26;;;;;;;;;;;18.10;61.00;;;;;;5021879;28;19983;-56
2021/11/03 03:31:52;;;;;;;;;;;18.10;61.00;;;;;;5021856;28;19925;-56
2021/11/03 03:34:18;;;;;;;;;;;18.10;60.90;;;;;;5022108;28;19917;-54
2021/11/03 03:36:46;;;;;;;;;;;18.10;61.00;;;;;;5021126;28;19913;-52
2021/11/03 03:39:11;;;;;;;;;;;18.10;61.00;;;;;;5022233;28;19924;-56
2021/11/03 03:41:37;;;;;;;;;;;18.10;61.00;;;;;;5022246;28;19917;-55
2021/11/03 03:44:03;;;;;;;;;;;18.10;61.00;;;;;;5021966;28;20415;-55
2021/11/03 03:46:28;;;;;;;;;;;18.10;61.00;;;;;;5021846;28;19921;-54
2021/11/03 03:48:54;;;;;;;;;;;18.10;61.00;;;;;;5022105;28;19920;-56
2021/11/03 03:51:19;;;;;;;;;;;18.10;61.00;;;;;;5021035;28;19921;-55
2021/11/03 03:53:45;;;;;;;;;;;18.10;61.00;;;;;;5025446;28;20439;-55
2021/11/03 03:56:14;;;;;;;;;;;18.10;61.00;;;;;;5023642;28;19921;-56
2021/11/03 03:58:40;;;;;;;;;;;18.10;61.10;;;;;;5023422;28;19939;-54
2021/11/03 04:01:05;;;;;;;;;;;18.10;61.10;;;;;;5025377;28;19913;-53
2021/11/03 04:03:31;;;;;;;;;;;18.10;61.10;;;;;;5025745;28;20683;-55
2021/11/03 04:05:56;;;;;;;;;;;18.00;61.10;;;;;;5026330;28;19920;-55
2021/11/03 04:08:24;;;;;;;;;;;18.00;61.10;;;;;;5026058;28;19917;-52
2021/11/03 04:10:49;;;;;;;;;;;18.00;61.20;;;;;;5025977;28;20047;-60
2021/11/03 04:13:15;;;;;;;;;;;18.00;61.20;;;;;;5024989;28;19992;-51
2021/11/03 04:15:40;;;;;;;;;;;18.00;61.20;;;;;;5025356;28;19917;-52
2021/11/03 04:18:06;;;;;;;;;;;18.00;61.20;;;;;;5025769;28;19921;-55
2021/11/03 04:20:31;;;;;;;;;;;18.00;61.20;;;;;;5025598;28;19913;-51
2021/11/03 04:22:56;;;;;;;;;;;18.00;61.20;;;;;;5026018;28;20138;-53
2021/11/03 04:25:22;;;;;;;;;;;18.00;61.20;;;;;;5025431;28;19917;-51
2021/11/03 04:27:47;;;;;;;;;;;18.00;61.20;;;;;;5026046;28;19918;-51
2021/11/03 04:30:14;;;;;;;;;;;18.00;61.20;;;;;;5025838;28;20574;-51
2021/11/03 04:32:39;;;;;;;;;;;17.90;61.20;;;;;;5025626;28;20408;-54
2021/11/03 04:35:05;;;;;;;;;;;18.00;61.20;;;;;;5025236;28;19913;-51
2021/11/03 04:37:30;;;;;;;;;;;17.90;61.10;;;;;;5007560;28;20383;-52
2021/11/03 04:39:56;;;;;;;;;;;18.00;61.10;;;;;;5025292;28;19919;-55
2021/11/03 04:42:21;;;;;;;;;;;18.00;61.10;;;;;;5023689;28;19917;-51
2021/11/03 04:44:47;;;;;;;;;;;18.00;61.00;;;;;;5025197;28;19917;-55
2021/11/03 04:47:12;;;;;;;;;;;18.00;61.10;;;;;;5025653;28;19916;-57
2021/11/03 04:49:38;;;;;;;;;;;17.90;61.10;;;;;;5025433;28;19978;-54
2021/11/03 04:52:03;;;;;;;;;;;18.00;61.10;;;;;;5025678;28;19914;-57
2021/11/03 04:54:29;;;;;;;;;;;17.90;61.00;;;;;;5025067;28;20463;-57
2021/11/03 04:56:54;;;;;;;;;;;18.00;61.10;;;;;;5025312;28;19913;-55
2021/11/03 04:59:20;;;;;;;;;;;17.90;61.10;;;;;;5024790;28;20370;-57
2021/11/03 05:01:45;;;;;;;;;;;17.90;61.00;;;;;;5024072;28;19924;-57
2021/11/03 05:04:11;;;;;;;;;;;17.90;61.00;;;;;;5021403;28;20751;-56
2021/11/03 05:06:37;;;;;;;;;;;17.90;61.00;;;;;;5026031;28;19928;-55
2021/11/03 05:09:03;;;;;;;;;;;17.90;60.90;;;;;;5026314;28;19920;-55
2021/11/03 05:11:29;;;;;;;;;;;17.90;61.00;;;;;;5025526;28;19913;-55
2021/11/03 05:13:56;;;;;;;;;;;17.90;60.90;;;;;;5025314;28;19912;-55
2021/11/03 05:16:22;;;;;;;;;;;17.90;60.90;;;;;;5024286;28;20402;-55
2021/11/03 05:18:47;;;;;;;;;;;18.00;60.90;;;;;;5026052;28;19924;-55
2021/11/03 05:21:13;;;;;;;;;;;17.90;61.00;;;;;;5032004;23;19928;-59
2021/11/03 05:23:39;;;;;;;;;;;17.90;61.10;;;;;;5014399;28;20623;-61
2021/11/03 05:26:04;;;;;;;;;;;17.90;61.30;;;;;;5022682;28;20035;-60
2021/11/03 05:28:29;;;;;;;;;;;17.90;61.90;;;;;;5022344;28;20004;-59
2021/11/03 05:30:55;;;;;;;;;;;17.90;62.20;;;;;;5041653;28;19924;-60
2021/11/03 05:33:20;;;;;;;;;;;17.80;62.20;;;;;;5039101;28;19924;-60
2021/11/03 05:35:46;;;;;;;;;;;17.80;62.30;;;;;;5028614;28;19913;-60
2021/11/03 05:38:11;;;;;;;;;;;17.90;62.30;;;;;;5043656;28;19913;-60
2021/11/03 05:40:37;;;;;;;;;;;17.90;62.50;;;;;;5027173;28;19995;-61
2021/11/03 05:43:02;;;;;;;;;;;17.90;62.60;;;;;;5033883;28;20452;-60
2021/11/03 05:45:28;;;;;;;;;;;17.90;62.60;;;;;;5038379;28;19913;-59
2021/11/03 05:47:53;;;;;;;;;;;17.90;62.70;;;;;;5041054;28;20298;-61
2021/11/03 05:50:20;;;;;;;;;;;17.80;62.70;;;;;;5039803;28;19917;-59
2021/11/03 05:52:45;;;;;;;;;;;17.80;62.70;;;;;;5040492;28;20039;-60
2021/11/03 05:55:11;;;;;;;;;;;17.80;62.80;;;;;;5039251;28;19916;-60
2021/11/03 05:57:37;;;;;;;;;;;17.80;62.80;;;;;;5038660;28;19924;-58
2021/11/03 06:00:29;;;;;;;;;;;17.80;62.80;;;;;;5039339;28;19916;-59
2021/11/03 06:02:55;;;;;;;;;;;17.90;62.70;;;;;;5036600;28;20004;-59
2021/11/03 06:05:20;;;;;;;;;;;17.90;62.60;;;;;;5037931;28;20344;-60
2021/11/03 06:07:56;;;;;;;;;;;17.80;62.60;;;;;;5035352;28;19917;-59
2021/11/03 06:10:27;;;;;;;;;;;17.90;62.60;;;;;;5020703;28;19913;-59
2021/11/03 06:12:56;;;;;;;;;;;17.90;62.30;;;;;;5021123;28;20393;-60
2021/11/03 06:15:22;;;;;;;;;;;17.90;61.90;;;;;;5023316;28;19913;-60
2021/11/03 06:17:49;;;;;;;;;;;18.00;61.80;;;;;;5022027;28;19968;-59
2021/11/03 06:20:15;;;;;;;;;;;18.00;61.60;;;;;;5022450;28;20378;-59
2021/11/03 06:22:40;;;;;;;;;;;18.00;61.60;;;;;;5029625;28;19932;-60
2021/11/03 06:25:07;;;;;;;;;;;17.90;61.90;;;;;;5032502;28;20296;-58
2021/11/03 06:27:33;;;;;;;;;;;17.90;62.00;;;;;;5036715;28;20420;-58
2021/11/03 06:29:58;;;;;;;;;;;17.90;62.10;;;;;;5037287;28;19944;-60
2021/11/03 06:32:23;;;;;;;;;;;17.90;62.20;;;;;;5036776;28;19968;-63
2021/11/03 06:34:49;;;;;;;;;;;17.90;62.20;;;;;;5029446;28;20358;-60
2021/11/03 06:37:14;;;;;;;;;;;17.90;62.20;;;;;;5020717;28;19918;-61
2021/11/03 06:39:40;;;;;;;;;;;17.90;62.10;;;;;;5020687;28;20032;-62
2021/11/03 06:42:05;;;;;;;;;;;17.90;62.00;;;;;;5020040;28;19924;-62
2021/11/03 06:44:31;;;;;;;;;;;17.90;62.00;;;;;;5021415;28;20421;-62
2021/11/03 06:46:56;;;;;;;;;;;17.90;61.90;;;;;;5038902;28;19912;-61
2021/11/03 06:49:22;;;;;;;;;;;17.90;61.90;;;;;;5041184;28;19963;-61
2021/11/03 06:51:47;;;;;;;;;;;17.90;61.80;;;;;;5031290;28;19913;-62
2021/11/03 06:54:13;;;;;;;;;;;17.90;61.70;;;;;;5028071;28;20309;-62
2021/11/03 06:56:38;;;;;;;;;;;17.90;61.50;;;;;;5027113;28;19925;-61
2021/11/03 06:59:04;;;;;;;;;;;17.90;61.40;;;;;;5040602;28;19921;-61
2021/11/03 07:01:29;;;;;;;;;;;17.90;61.30;;;;;;5028728;28;19916;-62
2021/11/03 07:03:56;;;;;;;;;;;18.00;61.20;;;;;;5037772;28;19952;-63
2021/11/03 07:06:22;;;;;;;;;;;18.00;61.10;;;;;;5038427;28;19982;-61
2021/11/03 07:08:47;;;;;;;;;;;18.00;61.10;;;;;;5028368;28;19917;-62
2021/11/03 07:11:13;;;;;;;;;;;18.00;61.10;;;;;;5017229;28;19913;-61
2021/11/03 07:13:38;;;;;;;;;;;18.00;61.00;;;;;;5017716;28;20623;-61
2021/11/03 07:16:04;;;;;;;;;;;18.00;60.90;;;;;;5030670;28;19913;-62
2021/11/03 07:18:29;;;;;;;;;;;18.00;60.90;;;;;;5037772;28;19913;-58
2021/11/03 07:20:55;;;;;;;;;;;18.00;60.90;;;;;;5037073;28;19925;-61
2021/11/03 07:23:20;;;;;;;;;;;18.00;60.90;;;;;;5020985;28;20346;-62
2021/11/03 07:25:46;;;;;;;;;;;18.00;60.80;;;;;;5017400;28;19933;-62
2021/11/03 07:28:11;;;;;;;;;;;18.00;60.80;;;;;;5023306;28;20285;-62
2021/11/03 07:30:37;;;;;;;;;;;17.90;60.80;;;;;;5024997;28;19948;-60
2021/11/03 07:33:03;;;;;;;;;;;17.90;60.90;;;;;;5026068;28;19913;-60
2021/11/03 07:35:28;;;;;;;;;;;17.90;61.00;;;;;;5027781;28;19913;-61
2021/11/03 07:37:54;;;;;;;;;;;17.90;61.00;;;;;;5031833;28;19917;-62
2021/11/03 07:40:21;;;;;;;;;;;17.90;61.00;;;;;;5024948;28;19923;-61
2021/11/03 07:42:46;;;;;;;;;;;17.80;61.00;;;;;;5025470;28;20558;-61
2021/11/03 07:45:12;;;;;;;;;;;17.90;61.10;;;;;;5045333;28;19927;-60
2021/11/03 07:47:37;;;;;;;;;;;17.90;60.90;;;;;;5029302;28;20000;-61
2021/11/03 07:50:03;;;;;;;;;;;17.90;60.80;;;;;;5024991;28;20441;-62
2021/11/03 07:52:29;;;;;;;;;;;17.90;60.70;;;;;;5030349;28;19913;-62
2021/11/03 07:54:54;;;;;;;;;;;17.90;60.60;;;;;;5024729;28;19917;-62
2021/11/03 07:57:19;;;;;;;;;;;18.00;60.50;;;;;;5035312;28;19920;-62
2021/11/03 07:59:45;;;;;;;;;;;18.00;60.30;;;;;;5045944;28;19912;-61
2021/11/03 08:02:11;;;;;;;;;;;18.10;60.10;;;;;;5027236;28;19967;-59
2021/11/03 08:04:36;;;;;;;;;;;18.10;60.00;;;;;;5025197;28;19917;-60
2021/11/03 08:07:01;;;;;;;;;;;18.10;59.90;;;;;;5025343;28;20294;-63
2021/11/03 08:09:27;;;;;;;;;;;18.20;59.80;;;;;;5043289;28;19948;-61
2021/11/03 08:11:55;;;;;;;;;;;18.20;59.80;;;;;;5045335;28;20446;-60
2021/11/03 08:14:22;;;;;;;;;;;18.20;59.70;;;;;;5034795;28;19955;-62
2021/11/03 08:16:47;;;;;;;;;;;18.20;59.70;;;;;;5034330;28;19919;-60
2021/11/03 08:19:13;;;;;;;;;;;18.20;59.60;;;;;;5025029;28;19913;-61
2021/11/03 08:21:38;;;;;;;;;;;18.20;59.70;;;;;;5025311;28;19917;-60
2021/11/03 08:24:04;;;;;;;;;;;18.30;59.70;;;;;;5025623;28;19917;-59
2021/11/03 08:26:29;;;;;;;;;;;18.30;59.60;;;;;;5023166;28;20059;-60
2021/11/03 08:28:54;;;;;;;;;;;18.30;59.60;;;;;;5024877;28;19968;-62
2021/11/03 08:31:20;;;;;;;;;;;18.30;59.60;;;;;;5025930;28;20302;-61
2021/11/03 08:33:45;;;;;;;;;;;18.30;59.60;;;;;;5024689;28;19963;-60
2021/11/03 08:36:11;;;;;;;;;;;18.30;59.60;;;;;;5042902;28;19913;-61
2021/11/03 08:38:36;;;;;;;;;;;18.30;59.60;;;;;;5042381;28;19913;-61
2021/11/03 08:41:02;;;;;;;;;;;18.30;59.60;;;;;;5040203;28;19913;-61
2021/11/03 08:43:29;;;;;;;;;;;18.30;59.60;;;;;;5041227;28;19923;-61
2021/11/03 08:45:55;;;;;;;;;;;18.30;59.60;;;;;;5034943;28;19914;-58
2021/11/03 08:48:20;;;;;;;;;;;18.30;59.60;;;;;;5023588;28;19913;-61
2021/11/03 08:50:46;;;;;;;;;;;18.30;59.60;;;;;;5041645;28;19913;-62
2021/11/03 08:53:12;;;;;;;;;;;18.30;59.60;;;;;;5030209;28;19928;-61
2021/11/03 08:55:38;;;;;;;;;;;18.30;59.60;;;;;;5023088;28;20527;-60
2021/11/03 08:58:03;;;;;;;;;;;18.30;59.50;;;;;;5041959;28;19920;-60
2021/11/03 09:00:31;;;;;;;;;;;18.30;59.50;;;;;;5030178;28;19921;-60
2021/11/03 09:02:56;;;;;;;;;;;18.30;59.50;;;;;;5021767;28;20456;-62
2021/11/03 09:05:22;;;;;;;;;;;18.30;59.50;;;;;;5021795;28;19913;-61
2021/11/03 09:07:47;;;;;;;;;;;18.30;59.50;;;;;;5035789;28;20366;-60
2021/11/03 09:10:13;;;;;;;;;;;18.30;59.40;;;;;;5041420;28;19923;-62
2021/11/03 09:12:39;;;;;;;;;;;18.30;59.50;;;;;;5041372;28;19920;-61
2021/11/03 09:15:05;;;;;;;;;;;18.40;59.50;;;;;;5041591;28;20008;-62
2021/11/03 09:17:31;;;;;;;;;;;18.30;59.40;;;;;;5040606;28;20390;-62
2021/11/03 09:19:57;;;;;;;;;;;18.30;59.40;;;;;;5041178;28;19917;-61
2021/11/03 09:22:22;;;;;;;;;;;18.30;59.30;;;;;;5041117;28;20390;-61
2021/11/03 09:24:48;;;;;;;;;;;18.30;59.40;;;;;;5040297;28;19912;-62
2021/11/03 09:27:16;;;;;;;;;;;18.30;59.40;;;;;;5027321;28;20385;-62
2021/11/03 09:29:42;;;;;;;;;;;18.30;59.40;;;;;;5040245;28;20385;-61
2021/11/03 09:32:11;;;;;;;;;;;18.30;59.40;;;;;;5039793;28;19913;-62
2021/11/03 09:34:37;;;;;;;;;;;18.30;59.40;;;;;;5025494;28;19940;-61
2021/11/03 09:37:03;;;;;;;;;;;18.30;59.40;;;;;;5025213;28;20373;-60
2021/11/03 09:39:29;;;;;;;;;;;18.30;59.40;;;;;;5041661;28;20324;-61
2021/11/03 09:41:54;;;;;;;;;;;18.30;59.40;;;;;;5042148;28;20328;-61
2021/11/03 09:44:27;;;;;;;;;;;18.40;59.40;;;;;;5044964;28;19917;-60
2021/11/03 09:46:56;;;;;;;;;;;18.30;59.40;;;;;;5039219;28;19917;-63
2021/11/03 09:49:36;;;;;;;;;;;18.30;59.40;;;;;;5039440;28;19912;-61
2021/11/03 09:52:31;;;;;;;;;;;18.30;59.40;;;;;;5036027;28;19917;-60
2021/11/03 09:54:57;;;;;;;;;;;18.30;59.50;;;;;;5006773;28;20214;-61
2021/11/03 09:57:31;;;;;;;;;;;18.30;59.50;;;;;;5038327;28;20096;-61
2021/11/03 10:00:10;;;;;;;;;;;18.30;59.50;;;;;;5038611;28;20488;-60
2021/11/03 10:02:39;;;;;;;;;;;18.30;59.50;;;;;;5018703;28;19951;-61
2021/11/03 10:05:19;;;;;;;;;;;18.30;59.50;;;;;;5018284;28;20001;-62
2021/11/03 10:07:49;;;;;;;;;;;18.30;59.50;;;;;;5019125;28;20016;-61
2021/11/03 10:10:19;;;;;;;;;;;18.30;59.50;;;;;;5029564;28;19917;-61
2021/11/03 10:12:45;;;;;;;;;;;18.30;59.50;;;;;;5019863;28;19913;-61
2021/11/03 10:15:10;;;;;;;;;;;18.30;59.50;;;;;;5026379;28;20090;-61
2021/11/03 10:17:35;;;;;;;;;;;18.30;59.50;;;;;;5022476;28;19970;-60
2021/11/03 10:20:04;;;;;;;;;;;18.30;59.50;;;;;;5025736;28;19978;-60
2021/11/03 10:22:36;;;;;;;;;;;18.30;59.50;;;;;;5025405;28;19924;-61
2021/11/03 10:25:02;;;;;;;;;;;18.30;59.50;;;;;;5038914;28;20414;-61
2021/11/03 10:27:28;;;;;;;;;;;18.20;59.40;;;;;;5029845;28;19919;-62
2021/11/03 10:29:54;;;;;;;;;;;18.20;59.50;;;;;;5017886;28;19917;-60
2021/11/03 10:32:22;;;;;;;;;;;18.30;59.50;;;;;;5021278;28;19917;-61
2021/11/03 10:34:49;;;;;;;;;;;18.30;59.50;;;;;;5028443;28;20365;-62
2021/11/03 10:37:24;;;;;;;;;;;18.20;59.40;;;;;;5022491;28;19923;-62
2021/11/03 10:39:51;;;;;;;;;;;18.20;59.40;;;;;;5023027;28;19920;-60
2021/11/03 10:42:30;;;;;;;;;;;18.20;59.40;;;;;;5039288;28;19917;-60
2021/11/03 10:45:15;;;;;;;;;;;18.20;59.40;;;;;;5038688;28;20616;-62
2021/11/03 10:47:42;;;;;;;;;;;18.30;59.50;;;;;;5026412;28;19913;-60
2021/11/03 10:50:32;;;;;;;;;;;18.20;59.40;;;;;;5019691;28;20012;-61
2021/11/03 10:52:58;;;;;;;;;;;18.30;59.50;;;;;;5011010;28;20286;-60
2021/11/03 10:55:26;;;;;;;;;;;18.20;59.50;;;;;;5019859;28;20003;-60
2021/11/03 10:57:56;;;;;;;;;;;18.20;59.50;;;;;;5020708;28;20271;-61
2021/11/03 11:00:23;;;;;;;;;;;18.20;59.50;;;;;;5033901;28;19913;-61
2021/11/03 11:02:58;;;;;;;;;;;18.20;59.50;;;;;;5031395;28;20444;-60
2021/11/03 11:05:24;;;;;;;;;;;18.20;59.40;;;;;;5017587;28;20022;-61
2021/11/03 11:07:51;;;;;;;;;;;18.20;59.40;;;;;;5004447;28;19913;-61
2021/11/03 11:10:22;;;;;;;;;;;18.20;59.50;;;;;;5031616;28;19913;-60
2021/11/03 11:12:48;;;;;;;;;;;18.30;59.50;;;;;;5040880;28;19960;-62
2021/11/03 11:15:14;;;;;;;;;;;18.20;59.50;;;;;;5032870;28;19913;-60
2021/11/03 11:17:45;;;;;;;;;;;18.20;59.50;;;;;;5021718;28;19913;-61
2021/11/03 11:20:21;;;;;;;;;;;18.20;59.50;;;;;;5047321;23;20001;-54
2021/11/03 11:22:53;;;;;;;;;;;18.20;59.50;;;;;;5038643;28;19925;-52
2021/11/03 11:25:23;;;;;;;;;;;18.20;59.50;;;;;;5043102;28;19921;-57
2021/11/03 11:28:03;;;;;;;;;;;18.20;59.50;;;;;;5023142;28;19921;-56
2021/11/03 11:30:36;;;;;;;;;;;18.20;59.40;;;;;;5040538;28;19913;-57
2021/11/03 11:33:04;;;;;;;;;;;18.20;59.40;;;;;;5023888;28;19920;-57
2021/11/03 11:35:35;;;;;;;;;;;18.20;60.00;;;;;;5021795;28;19944;-53
2021/11/03 11:38:04;;;;;;;;;;;18.20;59.40;;;;;;5037896;28;20392;-54
2021/11/03 11:40:35;;;;;;;;;;;18.20;59.40;;;;;;5040698;28;19944;-54
2021/11/03 11:43:19;;;;;;;;;;;18.20;59.40;;;;;;5040408;28;19917;-55
2021/11/03 11:45:44;;;;;;;;;;;18.20;59.40;;;;;;5023167;28;19956;-52
2021/11/03 11:48:13;;;;;;;;;;;18.20;59.40;;;;;;5040774;28;19959;-57
2021/11/03 11:50:38;;;;;;;;;;;18.20;60.00;;;;;;5022807;28;19952;-57
2021/11/03 11:53:18;;;;;;;;;;;18.20;59.40;;;;;;5040455;28;19959;-55
2021/11/03 11:55:45;;;;;;;;;;;18.20;59.40;;;;;;5040846;28;19995;-52
2021/11/03 11:58:11;;;;;;;;;;;18.20;59.40;;;;;;5022497;28;19917;-54
2021/11/03 12:00:38;;;;;;;;;;;18.20;59.50;;;;;;5041108;28;19978;-55
2021/11/03 12:03:12;;;;;;;;;;;18.20;59.50;;;;;;5023570;28;19917;-53
2021/11/03 12:05:45;;;;;;;;;;;18.20;59.50;;;;;;5023207;28;20184;-55
2021/11/03 12:08:11;;;;;;;;;;;18.20;59.50;;;;;;5041380;28;19913;-57
2021/11/03 12:10:40;;;;;;;;;;;18.20;59.50;;;;;;5041152;28;19917;-55
2021/11/03 12:13:09;;;;;;;;;;;18.20;59.50;;;;;;5040715;28;20333;-55
2021/11/03 12:15:43;;;;;;;;;;;18.20;59.50;;;;;;5044030;28;19913;-54
2021/11/03 12:18:14;;;;;;;;;;;18.20;59.50;;;;;;5044841;28;19913;-57
2021/11/03 12:20:40;;;;;;;;;;;18.20;59.50;;;;;;5043739;28;19921;-56
2021/11/03 12:23:26;;;;;;;;;;;18.20;59.50;;;;;;5043753;28;19921;-52
2021/11/03 12:25:51;;;;;;;;;;;18.20;59.50;;;;;;5044583;28;19917;-57
2021/11/03 12:28:19;;;;;;;;;;;18.20;59.50;;;;;;5043453;28;19982;-56
2021/11/03 12:31:03;;;;;;;;;;;18.20;59.50;;;;;;5044545;28;19982;-53
2021/11/03 12:33:30;;;;;;;;;;;18.20;59.50;;;;;;5033857;28;19954;-61
2021/11/03 12:35:58;;;;;;;;;;;18.20;59.50;;;;;;5027319;28;19913;-53
2021/11/03 12:38:23;;;;;;;;;;;18.20;59.50;;;;;;5027413;28;19913;-55
2021/11/03 12:40:50;;;;;;;;;;;18.20;59.60;;;;;;5042913;28;20393;-56
2021/11/03 12:43:19;;;;;;;;;;;18.20;59.60;;;;;;5040756;28;20263;-56
2021/11/03 12:45:52;;;;;;;;;;;18.20;59.60;;;;;;5026521;28;19913;-52
2021/11/03 12:48:20;;;;;;;;;;;18.20;59.60;;;;;;5044303;28;20190;-54
2021/11/03 12:50:46;;;;;;;;;;;18.20;59.60;;;;;;5026089;28;19913;-54
2021/11/03 12:53:14;;;;;;;;;;;18.20;59.60;;;;;;5026295;28;19913;-53
2021/11/03 12:55:44;;;;;;;;;;;18.20;59.60;;;;;;5043469;28;20667;-56
2021/11/03 12:58:28;;;;;;;;;;;18.20;59.60;;;;;;5025511;28;20479;-53
2021/11/03 13:00:54;;;;;;;;;;;18.20;59.60;;;;;;5044416;28;19913;-53
2021/11/03 13:03:23;;;;;;;;;;;18.20;59.60;;;;;;5024457;28;19948;-56
2021/11/03 13:05:49;;;;;;;;;;;18.20;59.60;;;;;;5043591;28;19921;-56
2021/11/03 13:08:25;;;;;;;;;;;18.20;59.70;;;;;;5024817;28;19913;-55
2021/11/03 13:11:06;;;;;;;;;;;18.20;59.70;;;;;;5025996;28;19917;-53
2021/11/03 13:13:32;;;;;;;;;;;18.20;59.70;;;;;;5043982;28;19921;-57
2021/11/03 13:16:14;;;;;;;;;;;18.20;59.70;;;;;;5043850;28;20293;-56
2021/11/03 13:18:40;;;;;;;;;;;18.20;59.70;;;;;;5025310;28;19996;-56
2021/11/03 13:21:28;;;;;;;;;;;18.20;59.70;;;;;;5025467;28;20462;-55
2021/11/03 13:23:57;;;;;;;;;;;18.20;59.70;;;;;;5035092;28;20454;-52
2021/11/03 13:26:26;;;;;;;;;;;18.20;59.70;;;;;;5024733;28;19919;-55
2021/11/03 13:28:52;;;;;;;;;;;18.20;59.70;;;;;;5042883;28;19924;-54
2021/11/03 13:31:20;;;;;;;;;;;18.20;59.70;;;;;;5042995;28;19917;-57
2021/11/03 13:34:00;;;;;;;;;;;18.20;59.60;;;;;;5043215;28;19993;-52
2021/11/03 13:36:27;;;;;;;;;;;18.20;59.60;;;;;;5043421;28;20336;-55
2021/11/03 13:38:52;;;;;;;;;;;18.20;59.60;;;;;;5025727;28;19919;-55
2021/11/03 13:41:31;;;;;;;;;;;18.20;59.60;;;;;;5042946;28;20647;-56
2021/11/03 13:44:15;;;;;;;;;;;18.20;59.50;;;;;;4997253;28;19923;-55
2021/11/03 13:46:41;;;;;;;;;;;18.20;59.60;;;;;;5038482;28;20715;-53
2021/11/03 13:49:22;;;;;;;;;;;18.20;59.60;;;;;;5042526;28;19920;-55
2021/11/03 13:51:54;;;;;;;;;;;18.20;59.60;;;;;;5025124;28;20009;-56
2021/11/03 13:54:25;;;;;;;;;;;18.20;59.50;;;;;;5042139;28;19984;-55
2021/11/03 13:56:51;;;;;;;;;;;18.20;59.50;;;;;;5042806;28;20612;-58
2021/11/03 13:59:18;;;;;;;;;;;18.20;59.60;;;;;;5043050;28;19920;-55
2021/11/03 14:01:47;;;;;;;;;;;18.20;59.50;;;;;;5023156;28;19935;-57
2021/11/03 14:04:14;;;;;;;;;;;18.20;59.50;;;;;;5041782;28;19920;-53
2021/11/03 14:06:46;;;;;;;;;;;18.20;59.60;;;;;;5042272;28;20370;-56
2021/11/03 14:09:21;;;;;;;;;;;18.20;59.50;;;;;;5025973;28;19920;-57
2021/11/03 14:11:48;;;;;;;;;;;18.20;59.60;;;;;;5025373;28;19917;-54
2021/11/03 14:14:13;;;;;;;;;;;18.20;59.50;;;;;;5042452;28;20478;-55
2021/11/03 14:16:44;;;;;;;;;;;18.20;59.50;;;;;;5042395;28;19913;-56
2021/11/03 14:19:17;;;;;;;;;;;18.20;59.60;;;;;;5042497;28;20203;-53